Main page
METAR-TAF:

METAR-TAF

Airports :

Jabalpur Airport

Jabalpur, India

latitude: 23-10-54N, longitude: 80-03-31E, elevation: 495 m

Current weather observation

The report was made 5 hours and 35 minutes ago, at 17:00 UTC
Wind 5 kt from the Northeast
Temperature 18°C
Humidity 77%
Pressure 1017 hPa
Visibility: 2000 m
haze

METAR: VAJB 041700Z 05005KT 2000 HZ NSC 18/14 Q1017

Time: 04:05 (22:35 UTC)

Forecast

The report was made 2 hours and 35 minutes ago, at 20:00 UTC
Forecast valid from 04 at 21 UTC to 05 at 06 UTC
Wind 5 kt from the Northeast
Visibility: 2000 m
Few clouds at a height of 10000 ft
haze
Becoming
from 05 at 01 UTC to 05 at 03 UTC
Visibility: 1000 m
Few clouds at a height of 10000 ft
Shallow fog
Becoming
from 05 at 04 UTC to 05 at 06 UTC
Wind 5 kt from the Northeast
Visibility: 1500 m
Few clouds at a height of 10000 ft
mist, haze

TAF: VAJB 042000Z 0421/0506 05005KT 2000 HZ FEW100 BECMG 0501/0503 1000 MIFG FEW100 BECMG 0504/0506 05005KT 1500 BR HZ FEW100

Weather observations and forecasts of more than 4000 airports (METAR and TAF reports).

The available stations are represented by yellow and red dots on the map.

Hover mouse over dot to see the name of the station.

Then click to see weather observations and forecasts.

To change the map : click on the green buttons with a black cross to zoom in, on the green button with a dash to zoom out, or on the green arrows for adjacent maps.


METAR-TAF: